Time;durP1;ratioP1;P1;durP2;ratioP2;P2;SDS_P1;SDS_P2;PMS_P1;PMS_P2;Temp;Humidity;BMP_temperature;BMP_pressure;BME280_temperature;BME280_humidity;BME280_pressure;Samples;Min_cycle;Max_cycle;Signal;HPM_P1;HPM_P2
2022/05/08 00:02:12;;;;;;;6.90;5.30;;;;;;;;;;5087804;28;20523;-86
2022/05/08 00:04:38;;;;;;;6.30;5.37;;;15.60;99.90;;;;;;5090557;28;20432;-86
2022/05/08 00:07:05;;;;;;;6.50;5.30;;;15.10;99.90;;;;;;5098524;28;20456;-85
2022/05/08 00:09:32;;;;;;;5.60;5.10;;;15.40;99.90;;;;;;5098684;28;20429;-86
2022/05/08 00:11:59;;;;;;;5.33;4.93;;;15.50;99.90;;;;;;5085191;28;20484;-86
2022/05/08 00:14:26;;;;;;;5.00;4.63;;;;;;;;;;5080338;28;20448;-86
2022/05/08 00:16:54;;;;;;;7.40;4.93;;;15.50;99.90;;;;;;5080718;28;20476;-86
2022/05/08 00:19:21;;;;;;;5.13;4.73;;;;;;;;;;5081904;28;20467;-86
2022/05/08 00:21:48;;;;;;;6.93;4.63;;;;;;;;;;5081915;28;20476;-86
2022/05/08 00:24:14;;;;;;;6.40;4.97;;;;;;;;;;5082456;28;20803;-85
2022/05/08 00:26:41;;;;;;;6.47;5.13;;;15.40;99.90;;;;;;5084903;28;20428;-85
2022/05/08 00:29:10;;;;;;;6.83;4.70;;;;;;;;;;5086328;28;20868;-85
2022/05/08 00:31:38;;;;;;;7.17;4.90;;;;;;;;;;5084607;28;20986;-86
2022/05/08 00:34:06;;;;;;;5.27;4.87;;;15.20;99.90;;;;;;5083349;28;20527;-85
2022/05/08 00:36:32;;;;;;;5.20;4.70;;;15.10;99.90;;;;;;5084315;28;20445;-86
2022/05/08 00:38:59;;;;;;;10.37;5.00;;;;;;;;;;5083424;28;20948;-86
2022/05/08 00:41:26;;;;;;;6.83;4.77;;;;;;;;;;5083214;28;20455;-86
2022/05/08 00:43:53;;;;;;;6.60;6.00;;;;;;;;;;5082453;28;20448;-85
2022/05/08 00:46:20;;;;;;;4.37;4.07;;;15.20;40.30;;;;;;5083747;28;20455;-85
2022/05/08 00:48:47;;;;;;;6.27;3.87;;;;;;;;;;5082173;28;20441;-84
2022/05/08 00:51:17;;;;;;;5.40;4.90;;;15.10;1.00;;;;;;5081822;28;20472;-85
2022/05/08 00:53:46;;;;;;;3.93;3.30;;;15.10;1.00;;;;;;5082139;28;20448;-85
2022/05/08 00:56:15;;;;;;;3.23;2.90;;;15.50;1.00;;;;;;5089521;28;20467;-85
2022/05/08 00:58:43;;;;;;;6.70;5.07;;;15.10;1.00;;;;;;5096098;28;20433;-85
2022/05/08 01:01:10;;;;;;;4.23;3.93;;;15.30;1.00;;;;;;5091692;28;20440;-84
2022/05/08 01:03:38;;;;;;;9.97;6.50;;;15.20;1.00;;;;;;5090935;28;20472;-84
2022/05/08 01:06:06;;;;;;;6.07;5.57;;;15.30;1.00;;;;;;5097927;28;20504;-85
2022/05/08 01:08:37;;;;;;;6.37;4.50;;;15.50;33.00;;;;;;5098054;28;20433;-85
2022/05/08 01:11:05;;;;;;;5.10;4.70;;;15.30;1.00;;;;;;5098017;28;20421;-85
2022/05/08 01:13:32;;;;;;;5.03;4.60;;;15.50;70.00;;;;;;5097834;28;20453;-85
2022/05/08 01:15:59;;;;;;;4.93;4.53;;;;;;;;;;5097819;28;20429;-85
2022/05/08 01:18:26;;;;;;;9.00;3.97;;;15.10;1.00;;;;;;5081582;28;20433;-85
2022/05/08 01:20:53;;;;;;;6.57;4.00;;;14.90;1.00;;;;;;5082249;28;20448;-84
2022/05/08 01:23:21;;;;;;;5.30;4.80;;;14.80;1.00;;;;;;5081239;28;20520;-85
2022/05/08 01:25:51;;;;;;;3.53;3.23;;;14.50;1.00;;;;;;5079746;28;20504;-86
2022/05/08 01:28:19;;;;;;;3.00;2.80;;;14.80;1.00;;;;;;5080725;28;20445;-86
2022/05/08 01:30:47;;;;;;;4.30;3.70;;;14.80;99.90;;;;;;5076996;28;20813;-86
2022/05/08 01:33:15;;;;;;;3.20;2.90;;;14.80;99.90;;;;;;5102399;22;20500;-83
2022/05/08 01:35:42;;;;;;;2.83;2.63;;;14.80;99.90;;;;;;5082182;28;20437;-84
2022/05/08 01:38:10;;;;;;;2.67;2.47;;;14.60;99.90;;;;;;5078157;28;20448;-85
2022/05/08 01:40:38;;;;;;;3.33;2.57;;;14.70;99.90;;;;;;5078394;28;20943;-84
2022/05/08 01:43:06;;;;;;;3.03;2.60;;;14.70;99.90;;;;;;5084397;28;20440;-85
2022/05/08 01:45:33;;;;;;;2.70;2.60;;;14.00;1.00;;;;;;5098841;28;20440;-85
2022/05/08 01:50:45;;;;;;;2.60;2.40;;;14.30;99.90;;;;;;5092949;28;20893;-83
2022/05/08 01:53:12;;;;;;;2.23;2.10;;;;;;;;;;5086926;28;20488;-84
2022/05/08 01:55:41;;;;;;;4.40;2.97;;;14.30;1.00;;;;;;5082176;28;20452;-85
2022/05/08 01:58:07;;;;;;;2.63;2.50;;;14.20;1.00;;;;;;5083444;28;20790;-84
2022/05/08 02:00:34;;;;;;;3.37;2.67;;;13.40;8.30;;;;;;5097202;28;20440;-84
2022/05/08 02:03:03;;;;;;;3.00;2.80;;;13.90;19.90;;;;;;5097230;28;20491;-84
2022/05/08 02:05:32;;;;;;;3.13;2.40;;;13.90;99.90;;;;;;5096039;28;20437;-84
2022/05/08 02:08:01;;;;;;;2.90;2.70;;;13.80;99.90;;;;;;5088836;28;20474;-84
2022/05/08 02:10:28;;;;;;;3.10;2.50;;;13.80;99.90;;;;;;5087759;28;20819;-84
2022/05/08 02:12:56;;;;;;;3.07;2.57;;;13.80;99.90;;;;;;5087443;28;20906;-84
2022/05/08 02:15:24;;;;;;;3.17;2.70;;;13.80;99.90;;;;;;5092769;28;20431;-84
2022/05/08 02:17:51;;;;;;;3.07;2.80;;;13.70;99.90;;;;;;5097405;28;20487;-84
2022/05/08 02:20:18;;;;;;;2.97;2.40;;;;;;;;;;5093258;28;20445;-84
2022/05/08 02:22:45;;;;;;;3.27;2.97;;;13.60;1.00;;;;;;5092090;28;20461;-84
2022/05/08 02:25:11;;;;;;;6.10;2.77;;;13.50;1.00;;;;;;5089376;28;20432;-84
2022/05/08 02:27:39;;;;;;;2.27;2.07;;;13.60;1.00;;;;;;5088377;28;20451;-84
2022/05/08 02:30:12;;;;;;;2.87;2.60;;;13.50;1.00;;;;;;5086463;28;20931;-85
2022/05/08 02:32:39;;;;;;;2.93;2.10;;;13.50;1.00;;;;;;5086999;28;20483;-84
2022/05/08 02:35:09;;;;;;;3.40;2.37;;;13.50;1.00;;;;;;5087388;28;20463;-84
2022/05/08 02:37:35;;;;;;;10.77;7.70;;;13.40;1.00;;;;;;5087900;28;20469;-83
2022/05/08 02:40:02;;;;;;;2.20;2.10;;;13.50;99.90;;;;;;5088122;28;20497;-84
2022/05/08 02:42:29;;;;;;;10.33;4.10;;;;;;;;;;5089448;28;20498;-84
2022/05/08 02:44:56;;;;;;;4.47;3.93;;;;;;;;;;5088778;28;20451;-84
2022/05/08 02:47:24;;;;;;;3.40;2.47;;;13.60;1.00;;;;;;5089090;28;20539;-84
2022/05/08 02:49:50;;;;;;;5.23;2.93;;;13.50;1.00;;;;;;5087311;28;20455;-84
2022/05/08 02:52:18;;;;;;;2.93;2.73;;;;;;;;;;5089475;28;20497;-84
2022/05/08 02:54:45;;;;;;;3.00;2.30;;;13.50;1.00;;;;;;5091356;28;20447;-84
2022/05/08 02:59:56;;;;;;;2.97;2.77;;;13.40;1.00;;;;;;5100630;28;20452;-83
2022/05/08 03:02:24;;;;;;;4.57;2.83;;;13.40;1.00;;;;;;5100336;28;20490;-84
2022/05/08 03:04:51;;;;;;;4.90;3.47;;;13.60;1.00;;;;;;5100046;28;20443;-84
2022/05/08 03:07:17;;;;;;;4.07;3.77;;;13.70;1.00;;;;;;5100192;28;20460;-83
2022/05/08 03:09:44;;;;;;;4.50;4.00;;;;;;;;;;5095466;28;20478;-84
2022/05/08 03:12:11;;;;;;;4.63;4.13;;;13.50;1.00;;;;;;5090352;28;20487;-85
2022/05/08 03:14:39;;;;;;;6.87;4.50;;;13.60;1.00;;;;;;5088196;28;20449;-84
2022/05/08 03:17:06;;;;;;;17.40;5.73;;;13.30;99.90;;;;;;5089279;28;20458;-83
2022/05/08 03:19:34;;;;;;;12.03;5.90;;;12.90;99.90;;;;;;5089995;28;20869;-83
2022/05/08 03:22:01;;;;;;;8.33;5.83;;;12.40;99.90;;;;;;5089964;28;20457;-84
2022/05/08 03:24:29;;;;;;;12.40;6.40;;;12.10;99.90;;;;;;5089306;28;20446;-84
2022/05/08 03:26:56;;;;;;;8.37;7.30;;;;;;;;;;5088883;28;20426;-84
2022/05/08 03:29:24;;;;;;;6.97;5.70;;;12.10;99.90;;;;;;5090784;28;20453;-82
2022/05/08 03:31:51;;;;;;;7.50;6.70;;;12.50;99.90;;;;;;5089421;28;20517;-84
2022/05/08 03:34:17;;;;;;;9.00;6.73;;;12.40;99.90;;;;;;5088329;28;20199;-84
2022/05/08 03:36:46;;;;;;;6.93;6.23;;;12.20;99.90;;;;;;5088373;28;20456;-83
2022/05/08 03:39:12;;;;;;;6.80;6.20;;;;;;;;;;5087484;28;20448;-83
2022/05/08 03:41:40;;;;;;;5.60;5.10;;;12.10;99.90;;;;;;5086801;28;20441;-84
2022/05/08 03:44:06;;;;;;;8.03;6.40;;;12.10;99.90;;;;;;5087434;28;20415;-84
2022/05/08 03:46:33;;;;;;;8.33;6.73;;;12.10;99.90;;;;;;5086343;28;20475;-84
2022/05/08 03:48:59;;;;;;;12.20;6.50;;;12.00;99.90;;;;;;5086736;28;20445;-84
2022/05/08 03:51:26;;;;;;;7.73;6.20;;;12.10;99.90;;;;;;5087240;28;20449;-84
2022/05/08 03:53:54;;;;;;;10.17;6.13;;;12.10;99.90;;;;;;5086489;28;20495;-84
2022/05/08 03:56:21;;;;;;;10.97;6.70;;;12.10;99.90;;;;;;5087613;28;20488;-84
2022/05/08 03:58:48;;;;;;;8.33;7.20;;;;;;;;;;5086727;28;20514;-84
2022/05/08 04:01:14;;;;;;;10.40;7.40;;;12.30;99.90;;;;;;5087017;28;20486;-83
2022/05/08 04:03:41;;;;;;;9.18;7.10;;;12.40;99.90;;;;;;5084950;28;20438;-83
2022/05/08 04:06:08;;;;;;;9.93;7.45;;;12.40;99.90;;;;;;5085140;28;20438;-84
2022/05/08 04:08:34;;;;;;;10.20;7.30;;;12.50;99.90;;;;;;5085958;28;20204;-83
2022/05/08 04:11:03;;;;;;;11.80;7.60;;;12.40;99.90;;;;;;5086810;28;20493;-83
2022/05/08 04:13:30;;;;;;;10.33;7.50;;;12.40;99.90;;;;;;5085287;28;20478;-84
2022/05/08 04:18:42;;;;;;;8.00;6.93;;;;;;;;;;5086893;28;20250;-84
2022/05/08 04:21:08;;;;;;;5.83;5.13;;;12.30;99.90;;;;;;5085871;28;20520;-84
2022/05/08 04:26:21;;;;;;;5.73;5.10;;;12.20;99.90;;;;;;5097324;28;20469;-84
2022/05/08 04:28:47;;;;;;;9.30;4.60;;;12.20;99.90;;;;;;5097474;28;20425;-83
2022/05/08 04:31:14;;;;;;;8.80;6.77;;;12.20;99.90;;;;;;5091588;28;20445;-84
2022/05/08 04:33:41;;;;;;;8.10;4.90;;;12.20;99.90;;;;;;5096421;28;20472;-84
2022/05/08 04:36:08;;;;;;;8.93;5.43;;;;;;;;;;5098223;28;20445;-86
2022/05/08 04:38:34;;;;;;;5.47;4.23;;;12.30;99.90;;;;;;5099587;28;20418;-85
2022/05/08 04:41:01;;;;;;;4.87;4.43;;;;;;;;;;5099557;28;20441;-87
2022/05/08 04:43:29;;;;;;;5.83;4.67;;;12.20;99.90;;;;;;5099319;28;20467;-86
2022/05/08 04:45:56;;;;;;;4.87;4.37;;;12.30;99.90;;;;;;5099134;28;20430;-87
2022/05/08 04:48:22;;;;;;;11.73;4.93;;;12.70;99.90;;;;;;5098742;28;20437;-86
2022/05/08 04:50:49;;;;;;;7.67;5.50;;;12.30;99.90;;;;;;5098539;28;20473;-84
2022/05/08 04:53:16;;;;;;;10.50;5.20;;;;;;;;;;5096897;28;20535;-84
2022/05/08 04:55:43;;;;;;;7.80;5.00;;;;;;;;;;5093858;28;20454;-84
2022/05/08 04:58:10;;;;;;;6.23;5.63;;;12.40;99.90;;;;;;5093259;28;20417;-84
2022/05/08 05:00:38;;;;;;;7.30;4.67;;;12.30;99.90;;;;;;5094865;28;20441;-83
2022/05/08 05:03:05;;;;;;;4.63;3.90;;;11.90;99.90;;;;;;5096689;28;20465;-84
2022/05/08 05:05:32;;;;;;;10.20;5.03;;;12.30;99.90;;;;;;5093331;28;20447;-84
2022/05/08 05:07:58;;;;;;;5.40;4.40;;;12.30;99.90;;;;;;5092378;28;20488;-84
2022/05/08 05:10:25;;;;;;;4.67;4.10;;;12.20;99.90;;;;;;5087176;28;20445;-84
2022/05/08 05:12:53;;;;;;;6.93;4.03;;;12.20;99.90;;;;;;5085538;28;20472;-85
2022/05/08 05:15:20;;;;;;;7.50;4.87;;;;;;;;;;5088367;28;20429;-85
2022/05/08 05:17:49;;;;;;;5.57;4.23;;;12.30;99.90;;;;;;5083919;28;20475;-83
2022/05/08 05:20:15;;;;;;;4.80;4.17;;;12.40;99.90;;;;;;5080497;28;20446;-84
2022/05/08 05:22:42;;;;;;;5.20;4.13;;;12.60;99.90;;;;;;5083428;28;20470;-84
2022/05/08 05:25:09;;;;;;;4.87;3.43;;;12.50;99.90;;;;;;5090416;28;20435;-83
2022/05/08 05:27:36;;;;;;;10.30;3.90;;;12.60;99.90;;;;;;5092160;28;20408;-83
2022/05/08 05:30:04;;;;;;;4.37;3.73;;;12.30;99.90;;;;;;5092909;28;20862;-84
2022/05/08 05:32:31;;;;;;;7.13;4.10;;;;;;;;;;5084235;28;20476;-84
2022/05/08 05:34:59;;;;;;;8.53;3.67;;;12.30;99.90;;;;;;5086233;28;20446;-83
2022/05/08 05:37:26;;;;;;;5.73;3.20;;;12.60;99.90;;;;;;5085017;28;20448;-85
2022/05/08 05:39:53;;;;;;;9.67;3.80;;;;;;;;;;5084960;28;20449;-84
2022/05/08 05:42:19;;;;;;;11.20;4.67;;;12.30;99.90;;;;;;5083929;28;20465;-84
2022/05/08 05:44:46;;;;;;;6.33;3.70;;;12.30;99.90;;;;;;5084317;28;20453;-84
2022/05/08 05:49:53;;;;;;;8.27;4.17;;;12.30;99.90;;;;;;5079056;28;20434;-84
2022/05/08 05:52:22;;;;;;;7.50;4.03;;;12.40;99.90;;;;;;5084055;28;20546;-84
2022/05/08 05:54:48;;;;;;;5.17;3.37;;;;;;;;;;5083759;28;21036;-84
2022/05/08 05:57:16;;;;;;;8.67;4.00;;;;;;;;;;5084101;28;20446;-84
2022/05/08 05:59:43;;;;;;;7.53;3.80;;;;;;;;;;5084146;28;20454;-84
2022/05/08 06:02:10;;;;;;;4.23;3.83;;;;;;;;;;5093127;28;20475;-83
2022/05/08 06:04:37;;;;;;;9.83;4.60;;;;;;;;;;5084122;28;20446;-84
2022/05/08 06:07:04;;;;;;;13.83;4.20;;;12.70;1.00;;;;;;5084388;28;20946;-84
2022/05/08 06:09:32;;;;;;;13.40;4.50;;;12.50;1.00;;;;;;5087408;28;20505;-84
2022/05/08 06:11:59;;;;;;;8.90;3.70;;;;;;;;;;5087411;28;20537;-85
2022/05/08 06:14:28;;;;;;;12.30;4.27;;;;;;;;;;5087809;28;20511;-85
2022/05/08 06:16:55;;;;;;;9.83;4.13;;;;;;;;;;5087975;28;20449;-85
2022/05/08 06:19:22;;;;;;;7.60;4.20;;;12.30;29.80;;;;;;5086898;28;20450;-85
2022/05/08 06:21:49;;;;;;;7.77;3.60;;;;;;;;;;5087458;28;20422;-84
2022/05/08 06:24:16;;;;;;;6.70;3.50;;;12.60;1.00;;;;;;5086821;28;20439;-85
2022/05/08 06:26:44;;;;;;;12.30;4.47;;;12.60;1.00;;;;;;5088153;28;20442;-84
2022/05/08 06:29:10;;;;;;;9.20;4.27;;;12.70;1.00;;;;;;5088474;28;20449;-84
2022/05/08 06:31:37;;;;;;;11.07;4.00;;;;;;;;;;5087750;28;20445;-84
2022/05/08 06:34:04;;;;;;;6.60;3.20;;;;;;;;;;5086570;28;20457;-84
2022/05/08 06:36:32;;;;;;;11.20;4.70;;;;;;;;;;5090565;28;20462;-83
2022/05/08 06:38:59;;;;;;;8.03;3.97;;;;;;;;;;5100152;28;20440;-82
2022/05/08 06:41:26;;;;;;;7.37;4.23;;;;;;;;;;5099444;28;20427;-83
2022/05/08 06:43:54;;;;;;;12.20;3.90;;;13.80;1.00;;;;;;5095908;28;20455;-84
2022/05/08 06:46:21;;;;;;;11.20;4.10;;;;;;;;;;5091173;28;20445;-83
2022/05/08 06:48:49;;;;;;;7.77;3.90;;;;;;;;;;5099030;28;20431;-83
2022/05/08 06:51:16;;;;;;;13.53;4.17;;;;;;;;;;5100262;28;20438;-84
2022/05/08 06:53:43;;;;;;;10.53;4.10;;;13.70;1.00;;;;;;5098101;28;20510;-84
2022/05/08 06:56:12;;;;;;;11.60;3.53;;;13.80;99.90;;;;;;5089280;28;20536;-84
2022/05/08 07:01:35;;;;;;;14.20;4.00;;;14.20;99.90;;;;;;5091457;28;20411;-85
2022/05/08 07:04:02;;;;;;;12.77;3.67;;;14.20;99.90;;;;;;5084314;28;20505;-84
2022/05/08 07:06:29;;;;;;;8.97;3.97;;;14.30;99.90;;;;;;5084423;28;20448;-83
2022/05/08 07:08:56;;;;;;;6.20;3.87;;;;;;;;;;5091057;28;20475;-84
2022/05/08 07:11:23;;;;;;;9.80;3.90;;;14.20;99.90;;;;;;5095214;28;20455;-84
2022/05/08 07:13:50;;;;;;;12.43;4.43;;;14.30;99.90;;;;;;5097276;28;20491;-83
2022/05/08 07:16:17;;;;;;;8.73;3.67;;;14.10;1.00;;;;;;5097969;28;20452;-84
2022/05/08 07:18:45;;;;;;;12.60;4.57;;;14.40;99.90;;;;;;5097894;28;20428;-84
2022/05/08 07:21:12;;;;;;;10.53;4.10;;;14.50;99.90;;;;;;5097490;28;20436;-84
2022/05/08 07:23:38;;;;;;;9.43;4.30;;;14.60;99.90;;;;;;5098252;28;20476;-83
2022/05/08 07:26:06;;;;;;;12.40;3.90;;;14.60;99.90;;;;;;5095924;28;20433;-84
2022/05/08 07:28:33;;;;;;;9.23;4.40;;;14.70;99.90;;;;;;5091428;28;20429;-84
2022/05/08 07:31:01;;;;;;;9.50;3.53;;;14.80;99.90;;;;;;5087591;28;20479;-84
2022/05/08 07:33:29;;;;;;;10.20;4.13;;;14.80;99.90;;;;;;5097602;22;20520;-86
2022/05/08 07:36:14;;;;;;;14.50;4.03;;;15.00;99.90;;;;;;5067179;28;20421;-85
2022/05/08 07:38:42;;;;;;;10.57;3.67;;;15.10;28.90;;;;;;5068063;28;20437;-85
2022/05/08 07:41:10;;;;;;;11.00;4.70;;;;;;;;;;5072238;28;20429;-86
2022/05/08 07:43:39;;;;;;;11.20;4.90;;;;;;;;;;5074241;28;20465;-86
2022/05/08 07:46:09;;;;;;;6.10;3.73;;;15.40;1.00;;;;;;5075662;28;20433;-85
2022/05/08 07:48:36;;;;;;;8.40;4.00;;;;;;;;;;5078770;28;20448;-86
2022/05/08 07:51:17;;;;;;;7.13;3.47;;;15.30;1.00;;;;;;5076918;28;20441;-86
2022/05/08 07:53:44;;;;;;;11.80;4.70;;;;;;;;;;5067407;28;20485;-85
2022/05/08 07:56:11;;;;;;;17.43;4.77;;;;;;;;;;5063607;28;20471;-84
2022/05/08 07:58:38;;;;;;;9.47;4.30;;;;;;;;;;5063405;28;20828;-85
2022/05/08 08:01:05;;;;;;;10.20;3.93;;;15.40;1.00;;;;;;5063666;28;20420;-85
2022/05/08 08:03:34;;;;;;;15.60;4.90;;;15.20;99.90;;;;;;5067258;28;20461;-86
2022/05/08 08:06:01;;;;;;;7.70;3.87;;;;;;;;;;5063111;28;20971;-86
2022/05/08 08:08:29;;;;;;;11.20;4.90;;;15.50;99.90;;;;;;5071858;28;20521;-85
2022/05/08 08:10:59;;;;;;;8.73;4.30;;;15.60;99.90;;;;;;5060902;28;20445;-86
2022/05/08 08:13:28;;;;;;;8.70;4.50;;;;;;;;;;5063129;28;20473;-84
2022/05/08 08:15:55;;;;;;;9.73;4.40;;;15.80;46.30;;;;;;5064117;28;20446;-86
2022/05/08 08:18:22;;;;;;;7.00;4.63;;;;;;;;;;5064525;28;20453;-86
2022/05/08 08:20:49;;;;;;;8.30;5.00;;;16.00;99.90;;;;;;5065244;28;20416;-86
2022/05/08 08:23:16;;;;;;;5.90;4.57;;;16.20;99.90;;;;;;5070958;28;20461;-85
2022/05/08 08:25:44;;;;;;;7.07;4.47;;;16.20;99.90;;;;;;5066709;28;20441;-86
2022/05/08 08:28:11;;;;;;;12.07;4.70;;;16.30;1.00;;;;;;5062788;28;20450;-85
2022/05/08 08:30:38;;;;;;;6.17;4.07;;;16.00;1.00;;;;;;5062695;28;20445;-86
2022/05/08 08:33:05;;;;;;;7.30;3.70;;;16.10;1.00;;;;;;5063585;28;20470;-86
2022/05/08 08:35:32;;;;;;;12.43;5.20;;;16.20;99.90;;;;;;5068159;28;20484;-84
2022/05/08 08:37:59;;;;;;;7.80;4.40;;;;;;;;;;5073113;28;20454;-85
2022/05/08 08:40:26;;;;;;;7.20;3.50;;;;;;;;;;5069668;28;20462;-85
2022/05/08 08:42:58;;;;;;;7.50;4.07;;;16.20;1.00;;;;;;5066439;28;20466;-85
2022/05/08 08:48:25;;;;;;;10.63;4.27;;;16.50;99.90;;;;;;5070947;28;20421;-85
2022/05/08 08:50:52;;;;;;;7.47;4.37;;;16.50;1.00;;;;;;5064279;28;20461;-85
2022/05/08 08:53:19;;;;;;;8.03;3.60;;;16.50;99.90;;;;;;5072069;28;20560;-85
2022/05/08 08:55:48;;;;;;;6.27;4.00;;;16.10;99.90;;;;;;5072145;28;20449;-85
2022/05/08 08:58:17;;;;;;;7.87;4.90;;;16.30;99.90;;;;;;5074675;28;20441;-86
2022/05/08 09:00:46;;;;;;;12.43;5.13;;;16.20;99.90;;;;;;5071698;28;20956;-86
2022/05/08 09:03:13;;;;;;;7.43;4.00;;;16.20;87.30;;;;;;5069483;28;20465;-86
2022/05/08 09:05:40;;;;;;;6.67;4.23;;;16.10;46.00;;;;;;5069275;28;20441;-85
2022/05/08 09:08:08;;;;;;;9.80;4.60;;;16.40;28.90;;;;;;5069084;28;20445;-85
2022/05/08 09:10:38;;;;;;;9.10;4.20;;;16.60;99.90;;;;;;5068040;28;20832;-86
2022/05/08 09:13:07;;;;;;;8.27;4.20;;;16.70;1.00;;;;;;5068318;28;20492;-86
2022/05/08 09:15:37;;;;;;;10.67;6.63;;;16.70;1.00;;;;;;5073327;28;20501;-88
2022/05/08 09:18:05;;;;;;;8.10;3.73;;;16.30;1.00;;;;;;5077763;28;20425;-87
2022/05/08 09:20:34;;;;;;;6.77;3.87;;;16.90;99.90;;;;;;5077895;28;20482;-86
2022/05/08 09:23:08;;;;;;;6.00;4.00;;;16.80;99.90;;;;;;5073748;28;20824;-87
2022/05/08 09:25:52;;;;;;;7.13;4.33;;;16.80;72.00;;;;;;5058089;28;20439;-85
2022/05/08 09:28:20;;;;;;;8.50;4.10;;;16.90;1.00;;;;;;5059801;28;20483;-85
2022/05/08 09:30:59;;;;;;;5.20;3.53;;;16.90;66.30;;;;;;5062225;28;20454;-86
2022/05/08 09:33:28;;;;;;;6.07;3.50;;;16.70;1.00;;;;;;5060031;28;20470;-86
2022/05/08 09:35:56;;;;;;;5.03;2.87;;;16.70;1.00;;;;;;5071689;28;20537;-85
2022/05/08 09:38:22;;;;;;;3.23;2.60;;;17.10;1.00;;;;;;5062798;28;20453;-85
2022/05/08 09:41:04;;;;;;;7.83;3.53;;;16.90;1.00;;;;;;5063570;28;20953;-85
2022/05/08 09:43:32;;;;;;;6.33;3.03;;;;;;;;;;5065217;28;20469;-86
2022/05/08 09:46:00;;;;;;;8.97;4.23;;;16.80;99.90;;;;;;5066041;28;20575;-86
2022/05/08 09:48:29;;;;;;;13.57;4.10;;;17.00;1.00;;;;;;5066667;28;20438;-86
2022/05/08 09:50:58;;;;;;;8.63;3.77;;;17.10;1.00;;;;;;5072605;28;20460;-85
2022/05/08 09:53:25;;;;;;;9.10;5.23;;;;;;;;;;5071530;28;20549;-87
2022/05/08 09:55:53;;;;;;;6.83;3.10;;;17.30;1.00;;;;;;5074845;28;20489;-86
2022/05/08 09:58:20;;;;;;;9.10;2.93;;;17.20;99.90;;;;;;5067982;28;20541;-87
2022/05/08 10:00:47;;;;;;;5.17;2.70;;;17.20;1.00;;;;;;5064728;28;20453;-86
2022/05/08 10:03:15;;;;;;;5.47;2.57;;;17.30;1.00;;;;;;5064302;28;20465;-86
2022/05/08 10:05:43;;;;;;;5.10;2.87;;;17.30;1.00;;;;;;5063957;28;20449;-86
2022/05/08 10:08:13;;;;;;;6.03;2.43;;;17.40;1.00;;;;;;5064758;28;20813;-86
2022/05/08 10:14:07;;;;;;;4.00;2.53;;;17.50;17.00;;;;;;5064465;28;20503;-85
2022/05/08 10:16:48;;;;;;;5.80;2.30;;;17.90;99.90;;;;;;5065730;28;20434;-85
2022/05/08 10:19:45;;;;;;;4.63;2.50;;;17.50;99.90;;;;;;5070528;28;20869;-85
2022/05/08 10:22:13;;;;;;;6.60;3.00;;;17.60;99.90;;;;;;5080764;28;20410;-86
2022/05/08 10:24:47;;;;;;;5.40;2.70;;;17.60;99.90;;;;;;5079461;28;20480;-85
2022/05/08 10:27:16;;;;;;;5.70;3.20;;;17.80;99.90;;;;;;5065974;28;20446;-85
2022/05/08 10:29:43;;;;;;;4.33;3.00;;;17.80;99.90;;;;;;5065825;28;20454;-85
2022/05/08 10:32:10;;;;;;;4.23;2.40;;;17.60;99.90;;;;;;5064297;28;20434;-87
2022/05/08 10:34:39;;;;;;;3.53;2.53;;;17.90;99.90;;;;;;5063379;28;20604;-85
2022/05/08 10:37:29;;;;;;;4.27;2.70;;;17.70;99.90;;;;;;5069615;28;20477;-85
2022/05/08 10:39:56;;;;;;;5.50;3.40;;;;;;;;;;5074253;28;20434;-86
2022/05/08 10:42:47;;;;;;;3.97;2.40;;;17.90;99.90;;;;;;5076019;28;20469;-86
2022/05/08 10:45:42;;;;;;;9.37;3.70;;;17.80;99.90;;;;;;5070243;28;20495;-85
2022/05/08 10:48:13;;;;;;;6.47;2.40;;;17.40;99.90;;;;;;5064651;28;20438;-86
2022/05/08 10:50:41;;;;;;;7.10;4.20;;;17.70;99.90;;;;;;5071907;28;20441;-86
2022/05/08 10:53:21;;;;;;;6.10;3.17;;;17.70;99.90;;;;;;5063497;28;20466;-86
2022/05/08 10:55:47;;;;;;;4.33;2.33;;;17.80;99.90;;;;;;5062965;28;20466;-86
2022/05/08 10:58:14;;;;;;;7.87;2.93;;;;;;;;;;5062315;28;20445;-86
2022/05/08 11:00:41;;;;;;;6.30;2.70;;;;;;;;;;5062090;28;20465;-86
2022/05/08 11:03:08;;;;;;;2.87;2.40;;;17.90;99.90;;;;;;5062937;28;20461;-85
2022/05/08 11:05:37;;;;;;;7.27;2.40;;;17.80;99.90;;;;;;5064601;28;20732;-85
2022/05/08 11:08:05;;;;;;;6.80;2.93;;;19.00;99.90;;;;;;5079996;28;20430;-87
2022/05/08 11:10:35;;;;;;;5.27;3.03;;;17.80;99.90;;;;;;5079889;28;20441;-87
2022/05/08 11:13:04;;;;;;;5.00;2.70;;;18.10;99.90;;;;;;5072072;28;20473;-86
2022/05/08 11:15:33;;;;;;;6.10;3.03;;;18.10;99.90;;;;;;5061410;28;20524;-86
2022/05/08 11:18:04;;;;;;;3.50;2.33;;;18.10;99.90;;;;;;5060992;28;20531;-86
2022/05/08 11:20:33;;;;;;;5.27;2.00;;;;;;;;;;5059943;28;20470;-87
2022/05/08 11:23:00;;;;;;;4.03;2.10;;;;;;;;;;5062465;28;20542;-87
2022/05/08 11:25:27;;;;;;;5.17;2.90;;;18.20;99.90;;;;;;5064150;28;20731;-86
2022/05/08 11:27:58;;;;;;;3.17;1.90;;;18.60;99.90;;;;;;5067455;28;20472;-86
2022/05/08 11:30:29;;;;;;;2.83;2.10;;;18.00;99.90;;;;;;5079446;28;20414;-87
2022/05/08 11:36:05;;;;;;;3.10;1.80;;;18.10;99.90;;;;;;5074364;28;20828;-86
2022/05/08 11:38:44;;;;;;;4.17;2.00;;;18.40;99.90;;;;;;5059511;28;20437;-87
2022/05/08 11:41:11;;;;;;;4.47;2.27;;;18.40;99.90;;;;;;5067244;28;20468;-86
2022/05/08 11:43:42;;;;;;;3.07;2.10;;;18.50;99.90;;;;;;5059306;28;20474;-85
2022/05/08 11:46:09;;;;;;;2.20;1.40;;;18.60;99.90;;;;;;5061173;28;20426;-85
2022/05/08 11:48:40;;;;;;;4.37;2.10;;;18.80;99.90;;;;;;5069811;28;20450;-87
2022/05/08 11:51:07;;;;;;;7.37;3.77;;;;;;;;;;5076108;28;20434;-87
2022/05/08 11:53:42;;;;;;;7.13;3.03;;;18.70;99.90;;;;;;5063638;28;20488;-86
2022/05/08 11:56:26;;;;;;;3.40;1.77;;;18.90;99.90;;;;;;5066106;28;20481;-85
2022/05/08 11:58:56;;;;;;;4.50;4.07;;;18.70;99.90;;;;;;5071466;28;20418;-85
2022/05/08 12:01:24;;;;;;;3.50;2.60;;;18.60;99.90;;;;;;5072355;28;20442;-86
2022/05/08 12:03:51;;;;;;;1.90;1.67;;;;;;;;;;5070933;28;20520;-86
2022/05/08 12:06:18;;;;;;;3.80;2.10;;;18.50;96.20;;;;;;5062558;28;20446;-86
2022/05/08 12:08:45;;;;;;;6.00;1.93;;;18.40;99.90;;;;;;5062652;28;20441;-86
2022/05/08 12:11:30;;;;;;;2.63;1.77;;;18.80;96.00;;;;;;5062902;28;20481;-85
2022/05/08 12:14:02;;;;;;;4.70;2.20;;;18.80;95.90;;;;;;5062152;28;20536;-87
2022/05/08 12:16:31;;;;;;;1.73;1.63;;;;;;;;;;5060847;28;20516;-88
2022/05/08 12:19:18;;;;;;;3.90;1.77;;;18.60;94.00;;;;;;5063087;28;20519;-85
2022/05/08 12:21:46;;;;;;;4.93;2.40;;;;;;;;;;5061663;28;20440;-85
2022/05/08 12:24:14;;;;;;;7.73;1.90;;;18.80;93.40;;;;;;5062093;28;20465;-86
2022/05/08 12:26:44;;;;;;;6.40;2.50;;;18.80;91.30;;;;;;5061171;28;20510;-86
2022/05/08 12:29:20;;;;;;;4.83;2.10;;;18.90;94.70;;;;;;5062509;28;20452;-86
2022/05/08 12:31:49;;;;;;;3.63;2.10;;;19.10;94.40;;;;;;5060946;28;20441;-86
2022/05/08 12:34:17;;;;;;;2.60;2.13;;;19.10;94.80;;;;;;5062531;28;20465;-86
2022/05/08 12:36:43;;;;;;;3.57;2.37;;;19.00;90.70;;;;;;5062780;28;20511;-86
2022/05/08 12:39:10;;;;;;;3.70;1.73;;;19.00;90.50;;;;;;5061820;28;20449;-86
2022/05/08 12:41:38;;;;;;;2.20;1.60;;;19.10;82.20;;;;;;5061753;28;20499;-85
2022/05/08 12:44:05;;;;;;;2.87;1.80;;;18.80;84.10;;;;;;5062097;28;20465;-87
2022/05/08 12:46:34;;;;;;;2.80;2.10;;;18.90;86.20;;;;;;5072673;28;20801;-86
2022/05/08 12:49:03;;;;;;;3.97;2.13;;;19.20;95.00;;;;;;5063128;28;20452;-84
2022/05/08 12:51:31;;;;;;;8.07;2.20;;;19.10;83.30;;;;;;5064867;28;20509;-86
2022/05/08 12:53:57;;;;;;;5.70;3.87;;;19.30;90.80;;;;;;5070373;28;20450;-85
2022/05/08 12:56:25;;;;;;;2.93;1.90;;;19.40;94.90;;;;;;5076282;28;20508;-85
2022/05/08 13:01:42;;;;;;;2.90;2.00;;;19.20;84.10;;;;;;5044796;28;20422;-86
2022/05/08 13:04:09;;;;;;;3.70;1.80;;;19.30;77.00;;;;;;5060393;28;20457;-85
2022/05/08 13:06:36;;;;;;;4.00;2.47;;;19.40;80.20;;;;;;5061333;28;20444;-86
2022/05/08 13:09:04;;;;;;;2.20;1.60;;;19.40;80.90;;;;;;5065628;28;20449;-86
2022/05/08 13:11:31;;;;;;;2.93;1.73;;;19.40;81.50;;;;;;5069001;28;20446;-86
2022/05/08 13:13:57;;;;;;;4.20;2.03;;;19.00;66.80;;;;;;5071567;28;20457;-86
2022/05/08 13:16:25;;;;;;;4.30;2.20;;;18.90;76.50;;;;;;5067495;28;20478;-86
2022/05/08 13:18:53;;;;;;;4.60;2.50;;;18.90;74.40;;;;;;5062993;28;20441;-86
2022/05/08 13:21:21;;;;;;;4.53;2.10;;;18.90;75.50;;;;;;5062769;28;20514;-86
2022/05/08 13:23:48;;;;;;;4.80;3.30;;;18.90;75.20;;;;;;5059234;28;20454;-85
2022/05/08 13:26:15;;;;;;;5.30;2.47;;;19.10;72.60;;;;;;5063689;28;20495;-86
2022/05/08 13:28:42;;;;;;;3.70;2.23;;;19.10;74.70;;;;;;5071099;28;20501;-86
2022/05/08 13:31:08;;;;;;;6.57;2.53;;;19.50;88.20;;;;;;5074621;28;20438;-86
2022/05/08 13:33:35;;;;;;;2.47;2.27;;;19.10;66.40;;;;;;5098967;22;20545;-82
2022/05/08 13:36:04;;;;;;;4.30;2.27;;;19.00;60.40;;;;;;5101868;28;20484;-82
2022/05/08 13:38:31;;;;;;;4.17;2.27;;;19.30;66.60;;;;;;5100780;28;21007;-83
2022/05/08 13:40:59;;;;;;;5.47;2.77;;;19.00;58.90;;;;;;5100546;28;20473;-82
2022/05/08 13:43:27;;;;;;;3.17;2.43;;;19.10;61.60;;;;;;5101070;28;20939;-83
2022/05/08 13:45:54;;;;;;;4.00;2.23;;;19.10;57.40;;;;;;5112034;28;20436;-83